Xin Nan Tai 77 — BVCM8 — position and weather

sailwx.info

Track history (hours):
 
Tides and Currents Weather Stations Pressure Air Temp Water Temp Dewpoint Dewpoint Depression Visibility Wind Speed Wind Dir Waves Ship Positions

Xin Nan Tai 77

Last reported at 2017-Dec-16 09:42 UTC. Time now 2017-Dec-18 01:24 UTC.
Position N 24°06' E 118°13'.

Length 114 m; draft 6 m.

Type: Cargo ship. MMSI: 413691640.

Date/timePositionNaut miles runAvg speedWind from/ knotsBaromVisibWave heightAir tempDewpointWater temp
2017-Dec-16 09:42N 24°06' E 118°13'2 9.0
2017-Dec-16 09:31N 24°07' E 118°15'5 9.1
2017-Dec-16 09:01N 24°10' E 118°18'5 9.1
2017-Dec-16 08:30N 24°13' E 118°21'5 9.3
2017-Dec-16 08:00N 24°17' E 118°25'5 9.5
2017-Dec-16 07:31N 24°20' E 118°28'5 9.7
2017-Dec-16 07:00N 24°24' E 118°32'5 9.6
2017-Dec-16 06:28N 24°29' E 118°33'2 4.1
2017-Dec-16 06:00N 24°31' E 118°34'0 0.0
2017-Dec-16 02:32N 24°31' E 118°34'0 0.0
2017-Dec-16 00:56N 24°31' E 118°34'0 0.0
2017-Dec-15 22:20N 24°31' E 118°34'0 0.0
2017-Dec-15 16:29N 24°31' E 118°33'2 2.7
2017-Dec-15 15:56N 24°31' E 118°32'0 0.1
2017-Dec-15 14:31N 24°31' E 118°32'0 0.0
2017-Dec-15 14:22N 24°31' E 118°32'0 0.0
2017-Dec-15 13:58N 24°31' E 118°32'0 0.0
2017-Dec-15 13:28N 24°31' E 118°32'0 0.0
2017-Dec-15 12:58N 24°32' E 118°32'0 0.0
2017-Dec-15 12:25N 24°32' E 118°32'0 0.0
2017-Dec-15 11:58N 24°32' E 118°32'0 0.0
2017-Dec-15 11:28N 24°32' E 118°32'0 0.3
2017-Dec-15 10:58N 24°31' E 118°32'2 4.6
2017-Dec-15 10:30N 24°30' E 118°33'5 9.8
2017-Dec-15 10:00N 24°25' E 118°32'510.7
2017-Dec-15 09:30N 24°23' E 118°26'510.5
2017-Dec-15 09:00N 24°21' E 118°21'510.4
2017-Dec-15 08:31N 24°21' E 118°16'511.0
2017-Dec-15 08:01N 24°21' E 118°10'611.4
2017-Dec-15 07:31N 24°25' E 118°05'611.0
2017-Dec-15 07:00N 24°27' E 117°59'7 0.6
2017-Dec-14 18:30N 24°24' E 118°06'0 0.0
2017-Dec-14 18:00N 24°24' E 118°06'0 0.0
2017-Dec-14 17:30N 24°24' E 118°06'0 0.0
2017-Dec-14 17:00N 24°24' E 118°06'0 0.0
2017-Dec-14 16:30N 24°24' E 118°06'0 0.0
2017-Dec-14 16:00N 24°24' E 118°06'0 0.1
2017-Dec-14 15:00N 24°24' E 118°06'0 0.0
2017-Dec-14 14:30N 24°24' E 118°06'0 0.1
2017-Dec-14 14:00N 24°24' E 118°06'0 0.0
2017-Dec-14 13:30N 24°24' E 118°06'0 0.1
2017-Dec-14 13:00N 24°24' E 118°06'0 0.0
2017-Dec-14 12:30N 24°24' E 118°06'0 0.0
2017-Dec-14 12:00N 24°24' E 118°06'0 0.0
2017-Dec-14 11:30N 24°24' E 118°06'1 1.2
2017-Dec-14 11:01N 24°24' E 118°06'3 5.9
2017-Dec-14 10:31N 24°22' E 118°09'510.3
2017-Dec-14 10:00N 24°20' E 118°14'510.1
2017-Dec-14 09:30N 24°20' E 118°20'5 9.8
2017-Dec-14 09:00N 24°22' E 118°25'5 9.6
2017-Dec-14 08:30N 24°24' E 118°30'4 8.9
2017-Dec-14 08:00N 24°27' E 118°33'4 8.5
2017-Dec-14 07:30N 24°31' E 118°33'0 0.2
2017-Dec-14 06:59N 24°31' E 118°33'0 0.0
2017-Dec-14 06:29N 24°31' E 118°33'0 0.0
2017-Dec-14 05:53N 24°31' E 118°33'0 0.0
2017-Dec-14 05:17N 24°31' E 118°33'0 0.0
2017-Dec-14 01:59N 24°31' E 118°33'0 0.0
2017-Dec-14 00:26N 24°31' E 118°33'0 0.3
2017-Dec-13 23:05N 24°31' E 118°33'0 2.8
2017-Dec-13 22:59N 24°31' E 118°33'2 3.8
2017-Dec-13 22:30N 24°29' E 118°32'1 2.8
2017-Dec-13 22:00N 24°28' E 118°33'1 2.2
2017-Dec-13 21:29N 24°26' E 118°33'3 5.9
2017-Dec-13 21:00N 24°24' E 118°32'3 6.7
2017-Dec-13 20:30N 24°21' E 118°29'3 6.3
2017-Dec-13 20:00N 24°19' E 118°27'3 5.8
2017-Dec-13 19:30N 24°17' E 118°25'3 6.2
2017-Dec-13 19:00N 24°15' E 118°23'3 5.7
2017-Dec-13 18:30N 24°13' E 118°20'3 5.4
2017-Dec-13 18:00N 24°11' E 118°18'3 5.5
2017-Dec-13 17:30N 24°09' E 118°16'3 5.3
2017-Dec-13 17:00N 24°07' E 118°14'3 4.8
2017-Dec-13 16:27N 24°05' E 118°12'  
Track history (hours):
 
Tides and Currents Weather Stations Pressure Air Temp Water Temp Dewpoint Dewpoint Depression Visibility Wind Speed Wind Dir Waves Ship Positions

Xin Nan Tai 77

Last reported at 2017-Dec-16 09:42 UTC. Time now 2017-Dec-18 01:24 UTC.
Position N 24°06' E 118°13'.

Length 114 m; draft 6 m.

Type: Cargo ship. MMSI: 413691640.

Date/timePositionNaut miles runAvg speedWind from/ knotsBaromVisibWave heightAir tempDewpointWater temp
2017-Dec-16 09:42N 24°06' E 118°13'2 9.0
2017-Dec-16 09:31N 24°07' E 118°15'5 9.1
2017-Dec-16 09:01N 24°10' E 118°18'5 9.1
2017-Dec-16 08:30N 24°13' E 118°21'5 9.3
2017-Dec-16 08:00N 24°17' E 118°25'5 9.5
2017-Dec-16 07:31N 24°20' E 118°28'5 9.7
2017-Dec-16 07:00N 24°24' E 118°32'5 9.6
2017-Dec-16 06:28N 24°29' E 118°33'2 4.1
2017-Dec-16 06:00N 24°31' E 118°34'0 0.0
2017-Dec-16 02:32N 24°31' E 118°34'0 0.0
2017-Dec-16 00:56N 24°31' E 118°34'0 0.0
2017-Dec-15 22:20N 24°31' E 118°34'0 0.0
2017-Dec-15 16:29N 24°31' E 118°33'2 2.7
2017-Dec-15 15:56N 24°31' E 118°32'0 0.1
2017-Dec-15 14:31N 24°31' E 118°32'0 0.0
2017-Dec-15 14:22N 24°31' E 118°32'0 0.0
2017-Dec-15 13:58N 24°31' E 118°32'0 0.0
2017-Dec-15 13:28N 24°31' E 118°32'0 0.0
2017-Dec-15 12:58N 24°32' E 118°32'0 0.0
2017-Dec-15 12:25N 24°32' E 118°32'0 0.0
2017-Dec-15 11:58N 24°32' E 118°32'0 0.0
2017-Dec-15 11:28N 24°32' E 118°32'0 0.3
2017-Dec-15 10:58N 24°31' E 118°32'2 4.6
2017-Dec-15 10:30N 24°30' E 118°33'5 9.8
2017-Dec-15 10:00N 24°25' E 118°32'510.7
2017-Dec-15 09:30N 24°23' E 118°26'510.5
2017-Dec-15 09:00N 24°21' E 118°21'510.4
2017-Dec-15 08:31N 24°21' E 118°16'511.0
2017-Dec-15 08:01N 24°21' E 118°10'611.4
2017-Dec-15 07:31N 24°25' E 118°05'611.0
2017-Dec-15 07:00N 24°27' E 117°59'7 0.6
2017-Dec-14 18:30N 24°24' E 118°06'0 0.0
2017-Dec-14 18:00N 24°24' E 118°06'0 0.0
2017-Dec-14 17:30N 24°24' E 118°06'0 0.0
2017-Dec-14 17:00N 24°24' E 118°06'0 0.0
2017-Dec-14 16:30N 24°24' E 118°06'0 0.0
2017-Dec-14 16:00N 24°24' E 118°06'0 0.1
2017-Dec-14 15:00N 24°24' E 118°06'0 0.0
2017-Dec-14 14:30N 24°24' E 118°06'0 0.1
2017-Dec-14 14:00N 24°24' E 118°06'0 0.0
2017-Dec-14 13:30N 24°24' E 118°06'0 0.1
2017-Dec-14 13:00N 24°24' E 118°06'0 0.0
2017-Dec-14 12:30N 24°24' E 118°06'0 0.0
2017-Dec-14 12:00N 24°24' E 118°06'0 0.0
2017-Dec-14 11:30N 24°24' E 118°06'1 1.2
2017-Dec-14 11:01N 24°24' E 118°06'3 5.9
2017-Dec-14 10:31N 24°22' E 118°09'510.3
2017-Dec-14 10:00N 24°20' E 118°14'510.1
2017-Dec-14 09:30N 24°20' E 118°20'5 9.8
2017-Dec-14 09:00N 24°22' E 118°25'5 9.6
2017-Dec-14 08:30N 24°24' E 118°30'4 8.9
2017-Dec-14 08:00N 24°27' E 118°33'4 8.5
2017-Dec-14 07:30N 24°31' E 118°33'0 0.2
2017-Dec-14 06:59N 24°31' E 118°33'0 0.0
2017-Dec-14 06:29N 24°31' E 118°33'0 0.0
2017-Dec-14 05:53N 24°31' E 118°33'0 0.0
2017-Dec-14 05:17N 24°31' E 118°33'0 0.0
2017-Dec-14 01:59N 24°31' E 118°33'0 0.0
2017-Dec-14 00:26N 24°31' E 118°33'0 0.3
2017-Dec-13 23:05N 24°31' E 118°33'0 2.8
2017-Dec-13 22:59N 24°31' E 118°33'2 3.8
2017-Dec-13 22:30N 24°29' E 118°32'1 2.8
2017-Dec-13 22:00N 24°28' E 118°33'1 2.2
2017-Dec-13 21:29N 24°26' E 118°33'3 5.9
2017-Dec-13 21:00N 24°24' E 118°32'3 6.7
2017-Dec-13 20:30N 24°21' E 118°29'3 6.3
2017-Dec-13 20:00N 24°19' E 118°27'3 5.8
2017-Dec-13 19:30N 24°17' E 118°25'3 6.2
2017-Dec-13 19:00N 24°15' E 118°23'3 5.7
2017-Dec-13 18:30N 24°13' E 118°20'3 5.4
2017-Dec-13 18:00N 24°11' E 118°18'3 5.5
2017-Dec-13 17:30N 24°09' E 118°16'3 5.3
2017-Dec-13 17:00N 24°07' E 118°14'3 4.8
2017-Dec-13 16:27N 24°05' E 118°12'  

Dump ship's entire track history